createdAt,value
2022-12-03T00:01:36.439Z,4.10
2022-12-03T00:04:04.049Z,4.22
2022-12-03T00:06:34.528Z,3.83
2022-12-03T00:09:03.751Z,4.40
2022-12-03T00:11:31.420Z,4.30
2022-12-03T00:13:58.965Z,4.82
2022-12-03T00:16:26.597Z,4.05
2022-12-03T00:18:54.159Z,4.50
2022-12-03T00:21:24.375Z,4.20
2022-12-03T00:23:52.250Z,4.25
2022-12-03T00:26:21.123Z,3.53
2022-12-03T00:28:48.696Z,3.80
2022-12-03T00:31:16.298Z,4.20
2022-12-03T00:33:43.915Z,4.40
2022-12-03T00:36:13.774Z,4.97
2022-12-03T00:38:41.437Z,4.10
2022-12-03T00:41:08.957Z,4.47
2022-12-03T00:43:37.879Z,4.10
2022-12-03T00:46:05.474Z,3.90
2022-12-03T00:48:33.034Z,4.65
2022-12-03T00:51:00.538Z,3.90
2022-12-03T00:53:28.075Z,4.00
2022-12-03T00:55:55.627Z,4.03
2022-12-03T00:58:23.138Z,4.07
2022-12-03T01:00:52.011Z,3.55
2022-12-03T01:03:19.567Z,3.95
2022-12-03T01:05:47.160Z,3.47
2022-12-03T01:08:14.817Z,4.22
2022-12-03T01:10:42.383Z,4.07
2022-12-03T01:13:09.996Z,4.45
2022-12-03T01:15:37.580Z,3.60
2022-12-03T01:18:06.569Z,3.80
2022-12-03T01:20:36.278Z,3.33
2022-12-03T01:23:03.839Z,4.95
2022-12-03T01:25:31.380Z,3.60
2022-12-03T01:27:58.918Z,4.97
2022-12-03T01:30:26.450Z,4.68
2022-12-03T01:32:52.994Z,3.92
2022-12-03T01:35:21.877Z,4.28
2022-12-03T01:37:49.338Z,4.45
2022-12-03T01:40:18.104Z,4.53
2022-12-03T01:42:45.601Z,4.07
2022-12-03T01:45:18.707Z,4.50
2022-12-03T01:47:46.292Z,4.30
2022-12-03T01:50:16.608Z,3.92
2022-12-03T01:52:46.308Z,4.03
2022-12-03T01:55:15.126Z,3.75
2022-12-03T01:57:44.926Z,3.10
2022-12-03T02:00:14.086Z,4.50
2022-12-03T02:02:41.615Z,3.55
2022-12-03T02:05:15.890Z,5.03
2022-12-03T02:07:44.821Z,3.85
2022-12-03T02:10:13.275Z,3.95
2022-12-03T02:12:42.026Z,3.75
2022-12-03T02:15:10.370Z,3.80
2022-12-03T02:17:38.346Z,3.55
2022-12-03T02:20:08.771Z,3.70
2022-12-03T02:22:39.150Z,4.40
2022-12-03T02:25:10.804Z,3.67
2022-12-03T02:27:38.375Z,3.38
2022-12-03T02:30:06.797Z,3.50
2022-12-03T02:32:34.383Z,4.22
2022-12-03T02:35:01.930Z,3.63
2022-12-03T02:37:31.705Z,4.07
2022-12-03T02:40:00.285Z,3.83
2022-12-03T02:42:38.863Z,3.40
2022-12-03T02:45:08.655Z,4.70
2022-12-03T02:47:37.930Z,3.58
2022-12-03T02:50:06.272Z,4.15
2022-12-03T02:52:33.792Z,3.72
2022-12-03T02:55:02.711Z,3.75
2022-12-03T02:57:31.599Z,3.83
2022-12-03T02:59:59.231Z,4.03
2022-12-03T03:02:28.410Z,4.35
2022-12-03T03:04:56.496Z,3.80
2022-12-03T03:07:24.275Z,3.90
2022-12-03T03:09:51.858Z,3.53
2022-12-03T03:12:19.530Z,3.60
2022-12-03T03:14:48.416Z,4.10
2022-12-03T03:17:15.959Z,4.15
2022-12-03T03:19:43.717Z,3.60
2022-12-03T03:22:11.719Z,5.03
2022-12-03T03:24:39.544Z,4.00
2022-12-03T03:27:07.374Z,4.60
2022-12-03T03:29:35.130Z,4.32
2022-12-03T03:32:04.356Z,4.38
2022-12-03T03:34:33.888Z,4.07
2022-12-03T03:37:01.431Z,4.30
2022-12-03T03:39:28.963Z,4.20
2022-12-03T03:41:56.577Z,3.55
2022-12-03T03:44:24.104Z,4.25
2022-12-03T03:46:51.612Z,3.45
2022-12-03T03:49:20.495Z,3.67
2022-12-03T03:51:48.142Z,4.25
2022-12-03T03:54:15.954Z,4.03
2022-12-03T03:56:43.610Z,3.28
2022-12-03T03:59:11.201Z,5.30
2022-12-03T04:01:38.936Z,4.68
2022-12-03T04:04:07.947Z,3.97
2022-12-03T04:06:36.857Z,4.13
2022-12-03T04:09:04.376Z,5.63
2022-12-03T04:11:49.498Z,4.63
2022-12-03T04:14:17.058Z,3.60
2022-12-03T04:16:44.701Z,4.47
2022-12-03T04:19:12.319Z,3.42
2022-12-03T04:21:58.620Z,4.68
2022-12-03T04:24:26.191Z,4.25
2022-12-03T04:27:16.294Z,4.10
2022-12-03T04:29:43.839Z,3.95
2022-12-03T04:32:29.154Z,4.32
2022-12-03T04:35:13.999Z,3.70
2022-12-03T04:37:42.925Z,3.83
2022-12-03T04:40:31.386Z,3.90
2022-12-03T04:42:58.982Z,3.60
2022-12-03T04:45:26.546Z,4.68
2022-12-03T04:47:54.261Z,3.67
2022-12-03T04:50:21.781Z,4.38
2022-12-03T04:52:50.670Z,4.30
2022-12-03T04:55:18.716Z,5.75
2022-12-03T04:57:46.375Z,4.30
2022-12-03T05:00:14.776Z,4.22
2022-12-03T05:02:42.405Z,4.22
2022-12-03T05:05:10.870Z,4.07
2022-12-03T05:07:38.454Z,4.03
2022-12-03T05:10:08.406Z,4.80
2022-12-03T05:12:36.090Z,5.13
2022-12-03T05:15:04.263Z,5.03
2022-12-03T05:17:32.033Z,5.15
2022-12-03T05:20:17.583Z,5.00
2022-12-03T05:22:45.126Z,4.95
2022-12-03T05:25:13.965Z,4.40
2022-12-03T05:27:41.459Z,4.93
2022-12-03T05:30:09.648Z,4.35
2022-12-03T05:32:37.140Z,5.05
2022-12-03T05:35:04.945Z,4.70
2022-12-03T05:37:32.465Z,4.57
2022-12-03T05:39:59.994Z,5.03
2022-12-03T05:42:46.659Z,4.35
2022-12-03T05:45:14.256Z,5.18
2022-12-03T05:47:41.808Z,5.18
2022-12-03T05:50:09.528Z,4.80
2022-12-03T05:52:37.067Z,5.43
2022-12-03T05:55:05.146Z,5.50
2022-12-03T05:57:34.004Z,6.07
2022-12-03T06:00:01.503Z,5.47
2022-12-03T06:02:29.138Z,5.32
2022-12-03T06:04:56.855Z,6.78
2022-12-03T06:07:24.601Z,5.68
2022-12-03T06:09:52.210Z,4.65
2022-12-03T06:12:19.723Z,5.57
2022-12-03T06:14:48.717Z,4.85
2022-12-03T06:17:16.210Z,4.60
2022-12-03T06:19:45.676Z,5.00
2022-12-03T06:22:15.268Z,4.43
2022-12-03T06:24:42.806Z,5.65
2022-12-03T06:27:10.415Z,6.20
2022-12-03T06:29:37.963Z,6.00
2022-12-03T06:32:07.095Z,5.22
2022-12-03T06:34:34.903Z,5.30
2022-12-03T06:37:02.523Z,6.38
2022-12-03T06:39:30.057Z,7.35
2022-12-03T06:41:57.687Z,5.85
2022-12-03T06:44:25.361Z,4.78
2022-12-03T06:46:53.067Z,7.18
2022-12-03T06:49:22.028Z,6.13
2022-12-03T06:51:49.602Z,7.85
2022-12-03T06:54:17.706Z,7.05
2022-12-03T06:56:45.796Z,7.57
2022-12-03T06:59:15.548Z,7.40
2022-12-03T07:01:43.390Z,7.28
2022-12-03T07:04:11.734Z,7.47
2022-12-03T07:06:40.825Z,7.57
2022-12-03T07:09:09.575Z,8.27
2022-12-03T07:11:40.837Z,7.30
2022-12-03T07:14:09.717Z,7.45
2022-12-03T07:16:37.562Z,8.38
2022-12-03T07:19:06.420Z,10.55
2022-12-03T07:21:34.390Z,8.27
2022-12-03T07:24:03.260Z,9.18
2022-12-03T07:26:30.992Z,8.50
2022-12-03T07:28:58.607Z,6.68
2022-12-03T07:31:26.314Z,7.20
2022-12-03T07:33:53.913Z,6.32
2022-12-03T07:36:21.568Z,7.57
2022-12-03T07:38:49.197Z,7.13
2022-12-03T07:41:18.093Z,6.07
2022-12-03T07:43:45.785Z,6.75
2022-12-03T07:46:13.909Z,8.15
2022-12-03T07:48:44.571Z,7.93
2022-12-03T07:51:15.263Z,8.20
2022-12-03T07:53:43.255Z,7.80
2022-12-03T07:56:11.054Z,8.73
2022-12-03T07:58:39.916Z,9.02
2022-12-03T08:01:07.509Z,9.23
2022-12-03T08:03:35.062Z,10.20
2022-12-03T08:06:02.659Z,9.65
2022-12-03T08:08:30.217Z,8.60
2022-12-03T08:10:57.980Z,8.40
2022-12-03T08:13:25.474Z,8.63
2022-12-03T08:15:56.876Z,7.03
2022-12-03T08:18:28.965Z,8.63
2022-12-03T08:20:59.885Z,8.20
2022-12-03T08:23:27.428Z,7.93
2022-12-03T08:25:55.054Z,9.02
2022-12-03T08:28:23.844Z,8.77
2022-12-03T08:30:58.352Z,8.60
2022-12-03T08:33:28.206Z,9.25
2022-12-03T08:35:56.851Z,7.80
2022-12-03T08:38:25.917Z,9.50
2022-12-03T08:40:55.475Z,7.78
2022-12-03T08:43:24.189Z,8.13
2022-12-03T08:45:52.352Z,8.10
2022-12-03T08:48:32.777Z,8.15
2022-12-03T08:51:05.343Z,9.40
2022-12-03T08:53:34.607Z,8.48
2022-12-03T08:56:02.891Z,8.95
2022-12-03T08:58:41.291Z,8.68
2022-12-03T09:01:27.706Z,9.07
2022-12-03T09:03:58.982Z,9.05
2022-12-03T09:06:26.536Z,8.73
2022-12-03T09:08:54.222Z,8.80
2022-12-03T09:11:21.922Z,8.80
2022-12-03T09:13:49.490Z,8.77
2022-12-03T09:16:17.086Z,9.43
2022-12-03T09:18:46.186Z,9.00
2022-12-03T09:21:23.221Z,8.60
2022-12-03T09:23:54.152Z,8.52
2022-12-03T09:26:26.280Z,9.25
2022-12-03T09:28:54.591Z,8.57
2022-12-03T09:31:22.381Z,9.70
2022-12-03T09:33:52.650Z,10.05
2022-12-03T09:36:21.889Z,9.90
2022-12-03T09:38:52.064Z,9.40
2022-12-03T09:41:35.908Z,9.88
2022-12-03T09:44:05.713Z,9.63
2022-12-03T09:46:37.220Z,8.18
2022-12-03T09:49:10.794Z,7.90
2022-12-03T09:51:43.368Z,8.63
2022-12-03T09:54:11.693Z,8.35
2022-12-03T09:57:04.076Z,8.77
2022-12-03T09:59:36.465Z,10.65
2022-12-03T10:02:05.119Z,10.38
2022-12-03T10:04:33.193Z,9.63
2022-12-03T10:07:02.442Z,9.85
2022-12-03T10:09:31.990Z,9.55
2022-12-03T10:12:08.961Z,9.35
2022-12-03T10:14:36.574Z,9.25
2022-12-03T10:17:06.340Z,9.30
2022-12-03T10:19:35.683Z,10.88
2022-12-03T10:22:08.516Z,9.73
2022-12-03T10:24:37.726Z,9.65
2022-12-03T10:27:06.338Z,10.00
2022-12-03T10:29:44.613Z,9.98
2022-12-03T10:32:16.990Z,11.82
2022-12-03T10:35:02.086Z,9.85
2022-12-03T10:38:08.555Z,8.68
2022-12-03T10:40:41.801Z,9.60
2022-12-03T10:43:25.497Z,9.73
2022-12-03T10:46:11.387Z,8.73
2022-12-03T10:48:40.455Z,9.43
2022-12-03T10:51:13.137Z,7.63
2022-12-03T10:53:43.025Z,9.45
2022-12-03T10:56:15.671Z,8.43
2022-12-03T10:58:56.490Z,9.15
2022-12-03T11:01:30.586Z,8.07
2022-12-03T11:04:05.292Z,8.07
2022-12-03T11:06:41.003Z,9.00
2022-12-03T11:09:16.570Z,7.75
2022-12-03T11:11:44.660Z,9.38
2022-12-03T11:14:21.241Z,8.27
2022-12-03T11:17:11.662Z,7.50
2022-12-03T11:19:43.566Z,8.48
2022-12-03T11:25:21.811Z,7.35
2022-12-03T11:28:23.986Z,8.45
2022-12-03T11:31:04.516Z,7.15
2022-12-03T11:33:35.096Z,9.32
2022-12-03T11:36:31.679Z,7.22
2022-12-03T11:39:04.192Z,7.70
2022-12-03T11:41:36.355Z,9.07
2022-12-03T11:47:21.750Z,8.35
2022-12-03T11:50:01.075Z,8.27
2022-12-03T11:55:38.627Z,7.38
2022-12-03T11:58:16.175Z,6.80
2022-12-03T12:00:49.288Z,6.25
2022-12-03T12:06:11.010Z,6.03
2022-12-03T12:08:41.211Z,6.70
2022-12-03T12:11:17.721Z,6.78
2022-12-03T12:13:52.462Z,7.00
2022-12-03T12:16:40.297Z,5.75
2022-12-03T12:22:29.277Z,8.07
2022-12-03T12:24:57.420Z,6.85
2022-12-03T12:27:30.228Z,6.03
2022-12-03T12:29:58.790Z,5.38
2022-12-03T12:32:27.886Z,5.15
2022-12-03T12:34:56.306Z,6.07
2022-12-03T12:37:29.170Z,6.22
2022-12-03T12:39:57.872Z,5.30
2022-12-03T12:42:29.798Z,6.20
2022-12-03T12:44:59.602Z,6.18
2022-12-03T12:47:29.936Z,5.70
2022-12-03T12:55:34.798Z,7.75
2022-12-03T12:58:14.374Z,6.88
2022-12-03T13:00:52.088Z,7.07
2022-12-03T13:03:22.085Z,7.80
2022-12-03T13:05:50.413Z,7.72
2022-12-03T13:08:28.288Z,8.75
2022-12-03T13:10:56.434Z,7.47
2022-12-03T13:13:32.885Z,7.85
2022-12-03T13:18:48.158Z,6.22
2022-12-03T13:21:23.814Z,6.43
2022-12-03T13:23:54.501Z,7.35
2022-12-03T13:29:13.353Z,7.13
2022-12-03T13:31:44.221Z,7.10
2022-12-03T13:34:15.326Z,6.15
2022-12-03T13:36:43.402Z,6.93
2022-12-03T13:39:14.781Z,6.55
2022-12-03T13:42:00.971Z,6.55
2022-12-03T13:44:30.841Z,5.75
2022-12-03T13:46:58.703Z,6.05
2022-12-03T13:49:26.782Z,8.27
2022-12-03T13:51:56.739Z,7.50
2022-12-03T13:54:28.001Z,9.52
2022-12-03T13:56:56.134Z,9.57
2022-12-03T13:59:26.451Z,9.07
2022-12-03T14:01:54.255Z,10.00
2022-12-03T14:04:40.543Z,9.80
2022-12-03T14:07:15.653Z,9.27
2022-12-03T14:09:45.737Z,9.40
2022-12-03T14:12:30.957Z,8.63
2022-12-03T14:14:59.279Z,6.60
2022-12-03T14:17:29.128Z,7.72
2022-12-03T14:19:57.143Z,6.82
2022-12-03T14:22:25.439Z,6.55
2022-12-03T14:24:54.586Z,7.15
2022-12-03T14:27:24.732Z,6.68
2022-12-03T14:29:53.084Z,7.30
2022-12-03T14:32:24.167Z,8.98
2022-12-03T14:34:52.226Z,7.63
2022-12-03T14:37:21.936Z,7.78
2022-12-03T14:39:53.219Z,7.22
2022-12-03T14:42:24.714Z,8.60
2022-12-03T14:44:58.026Z,8.93
2022-12-03T14:47:27.085Z,10.15
2022-12-03T14:49:58.526Z,11.55
2022-12-03T14:52:29.146Z,9.85
2022-12-03T14:54:59.396Z,10.23
2022-12-03T14:57:36.903Z,9.57
2022-12-03T15:00:09.569Z,8.60
2022-12-03T15:02:37.139Z,8.88
2022-12-03T15:05:07.239Z,7.35
2022-12-03T15:07:34.823Z,7.72
2022-12-03T15:10:02.582Z,8.13
2022-12-03T15:12:31.575Z,7.20
2022-12-03T15:14:59.271Z,7.35
2022-12-03T15:17:31.597Z,8.55
2022-12-03T15:20:11.932Z,8.30
2022-12-03T15:22:39.463Z,10.07
2022-12-03T15:25:07.688Z,9.50
2022-12-03T15:27:41.481Z,8.13
2022-12-03T15:30:10.224Z,8.70
2022-12-03T15:32:39.311Z,8.60
2022-12-03T15:35:07.243Z,7.82
2022-12-03T15:37:34.854Z,9.73
2022-12-03T15:40:02.397Z,8.80
2022-12-03T15:42:33.364Z,8.73
2022-12-03T15:45:02.221Z,8.95
2022-12-03T15:47:29.755Z,7.93
2022-12-03T15:49:57.346Z,8.85
2022-12-03T15:52:25.000Z,8.30
2022-12-03T15:54:52.628Z,7.63
2022-12-03T15:57:20.094Z,8.15
2022-12-03T15:59:47.870Z,8.32
2022-12-03T16:02:18.598Z,8.25
2022-12-03T16:04:48.311Z,9.38
2022-12-03T16:07:16.203Z,7.95
2022-12-03T16:09:44.912Z,10.05
2022-12-03T16:12:19.851Z,9.20
2022-12-03T16:14:47.573Z,8.38
2022-12-03T16:17:26.520Z,8.75
2022-12-03T16:20:00.693Z,10.02
2022-12-03T16:26:11.880Z,9.35
2022-12-03T16:28:39.392Z,8.90
2022-12-03T16:31:07.242Z,7.68
2022-12-03T16:33:36.376Z,7.53
2022-12-03T16:36:06.953Z,6.97
2022-12-03T16:38:34.995Z,7.15
2022-12-03T16:41:04.058Z,6.57
2022-12-03T16:43:42.806Z,6.35
2022-12-03T16:46:29.881Z,5.97
2022-12-03T16:49:02.556Z,6.90
2022-12-03T16:51:31.643Z,5.70
2022-12-03T16:53:59.225Z,6.57
2022-12-03T16:56:27.535Z,5.93
2022-12-03T16:58:55.289Z,5.15
2022-12-03T17:01:23.503Z,4.05
2022-12-03T17:03:51.316Z,5.88
2022-12-03T17:06:27.801Z,5.25
2022-12-03T17:08:55.303Z,5.63
2022-12-03T17:11:25.100Z,5.53
2022-12-03T17:13:52.804Z,5.47
2022-12-03T17:16:20.550Z,4.95
2022-12-03T17:18:48.252Z,3.63
2022-12-03T17:21:34.941Z,5.57
2022-12-03T17:24:19.201Z,5.13
2022-12-03T17:26:46.765Z,4.80
2022-12-03T17:29:14.324Z,5.70
2022-12-03T17:31:51.006Z,5.30
2022-12-03T17:34:18.782Z,5.55
2022-12-03T17:36:46.549Z,6.40
2022-12-03T17:39:15.602Z,6.22
2022-12-03T17:41:43.210Z,4.93
2022-12-03T17:44:15.072Z,6.03
2022-12-03T17:46:45.926Z,6.53
2022-12-03T17:49:13.564Z,6.70
2022-12-03T17:51:41.181Z,5.75
2022-12-03T17:54:08.963Z,6.38
2022-12-03T17:56:39.598Z,6.22
2022-12-03T17:59:07.062Z,6.75
2022-12-03T18:01:34.677Z,5.38
2022-12-03T18:04:02.273Z,7.43
2022-12-03T18:06:29.890Z,6.22
2022-12-03T18:08:57.474Z,6.82
2022-12-03T18:11:25.237Z,6.15
2022-12-03T18:13:54.126Z,7.07
2022-12-03T18:16:21.777Z,6.15
2022-12-03T18:18:55.056Z,7.30
2022-12-03T18:21:24.113Z,6.80
2022-12-03T18:23:51.848Z,6.78
2022-12-03T18:26:19.496Z,6.22
2022-12-03T18:28:47.034Z,6.63
2022-12-03T18:31:16.655Z,5.68
2022-12-03T18:33:44.213Z,5.85
2022-12-03T18:36:16.917Z,6.25
2022-12-03T18:38:44.897Z,6.57
2022-12-03T18:41:12.567Z,5.40
2022-12-03T18:43:42.428Z,5.22
2022-12-03T18:46:31.088Z,4.70
2022-12-03T18:49:00.900Z,6.35
2022-12-03T18:51:29.706Z,5.40
2022-12-03T18:53:57.235Z,5.32
2022-12-03T18:56:24.822Z,4.55
2022-12-03T18:58:52.296Z,4.25
2022-12-03T19:01:21.737Z,4.88
2022-12-03T19:03:49.890Z,5.07
2022-12-03T19:06:20.292Z,6.40
2022-12-03T19:08:48.280Z,6.75
2022-12-03T19:11:15.801Z,6.22
2022-12-03T19:13:43.639Z,5.80
2022-12-03T19:16:12.087Z,6.57
2022-12-03T19:18:39.751Z,6.50
2022-12-03T19:21:08.237Z,6.00
2022-12-03T19:23:37.317Z,5.47
2022-12-03T19:26:06.604Z,5.43
2022-12-03T19:28:34.135Z,5.85
2022-12-03T19:31:05.303Z,6.05
2022-12-03T19:33:40.728Z,5.97
2022-12-03T19:36:08.731Z,7.78
2022-12-03T19:38:39.755Z,6.28
2022-12-03T19:41:07.940Z,6.43
2022-12-03T19:43:36.473Z,7.55
2022-12-03T19:46:04.797Z,6.68
2022-12-03T19:48:32.720Z,6.07
2022-12-03T19:51:32.457Z,5.68
2022-12-03T19:53:51.739Z,6.15
2022-12-03T19:56:19.875Z,6.38
2022-12-03T19:58:47.900Z,5.65
2022-12-03T20:01:16.766Z,4.80
2022-12-03T20:03:45.092Z,5.72
2022-12-03T20:06:13.283Z,5.95
2022-12-03T20:08:41.803Z,4.88
2022-12-03T20:11:11.453Z,5.75
2022-12-03T20:13:39.062Z,6.30
2022-12-03T20:16:08.602Z,6.32
2022-12-03T20:18:36.689Z,5.43
2022-12-03T20:21:04.223Z,5.90
2022-12-03T20:23:31.716Z,6.72
2022-12-03T20:25:59.384Z,6.40
2022-12-03T20:28:28.874Z,7.07
2022-12-03T20:30:59.571Z,6.20
2022-12-03T20:33:27.128Z,6.57
2022-12-03T20:35:54.902Z,6.15
2022-12-03T20:38:23.803Z,5.80
2022-12-03T20:40:51.531Z,5.70
2022-12-03T20:43:19.206Z,6.57
2022-12-03T20:45:48.193Z,5.72
2022-12-03T20:48:15.922Z,6.75
2022-12-03T20:50:43.683Z,6.15
2022-12-03T20:53:24.354Z,6.15
2022-12-03T20:55:55.851Z,5.97
2022-12-03T20:58:23.476Z,6.50
2022-12-03T21:00:52.467Z,6.40
2022-12-03T21:03:20.151Z,5.97
2022-12-03T21:06:05.171Z,7.55
2022-12-03T21:08:41.589Z,7.47
2022-12-03T21:11:10.572Z,6.47
2022-12-03T21:13:41.328Z,6.15
2022-12-03T21:16:11.498Z,6.63
2022-12-03T21:18:40.324Z,7.55
2022-12-03T21:21:13.908Z,7.40
2022-12-03T21:23:41.496Z,6.20
2022-12-03T21:26:10.870Z,6.88
2022-12-03T21:28:39.451Z,6.95
2022-12-03T21:31:08.972Z,6.28
2022-12-03T21:33:38.141Z,6.40
2022-12-03T21:36:09.571Z,6.20
2022-12-03T21:38:37.584Z,6.65
2022-12-03T21:41:08.055Z,6.28
2022-12-03T21:43:35.882Z,6.45
2022-12-03T21:47:08.086Z,7.05
2022-12-03T21:48:55.322Z,6.53
2022-12-03T21:51:22.859Z,4.68
2022-12-03T21:53:50.881Z,5.93
2022-12-03T21:56:19.745Z,6.40
2022-12-03T21:58:47.702Z,5.18
2022-12-03T22:01:17.924Z,8.35
2022-12-03T22:03:45.593Z,6.95
2022-12-03T22:06:14.899Z,5.97
2022-12-03T22:08:42.956Z,5.43
2022-12-03T22:11:12.289Z,6.38
2022-12-03T22:13:40.096Z,7.00
2022-12-03T22:16:08.298Z,6.90
2022-12-03T22:18:36.269Z,6.78
2022-12-03T22:21:04.956Z,6.85
2022-12-03T22:23:34.185Z,6.57
2022-12-03T22:26:03.084Z,8.13
2022-12-03T22:28:30.647Z,7.43
2022-12-03T22:30:58.908Z,8.40
2022-12-03T22:33:29.460Z,7.75
2022-12-03T22:35:57.814Z,7.80
2022-12-03T22:38:37.304Z,8.63
2022-12-03T22:41:07.040Z,6.88
2022-12-03T22:43:40.186Z,6.85
2022-12-03T22:46:12.386Z,8.15
2022-12-03T22:48:41.132Z,7.57
2022-12-03T22:51:12.889Z,8.10
2022-12-03T22:53:40.393Z,8.25
2022-12-03T22:56:09.250Z,7.38
2022-12-03T22:58:38.574Z,5.82
2022-12-03T23:01:06.245Z,7.82
2022-12-03T23:03:33.963Z,8.43
2022-12-03T23:06:01.554Z,8.85
2022-12-03T23:08:32.138Z,8.07
2022-12-03T23:11:01.668Z,7.47
2022-12-03T23:13:30.577Z,8.05
2022-12-03T23:15:58.355Z,7.35
2022-12-03T23:18:25.918Z,7.90
2022-12-03T23:20:54.392Z,8.30
2022-12-03T23:23:22.628Z,8.13
2022-12-03T23:25:58.214Z,7.75
2022-12-03T23:28:25.962Z,7.57
2022-12-03T23:30:54.935Z,7.15
2022-12-03T23:33:22.536Z,7.18
2022-12-03T23:35:50.262Z,8.98
2022-12-03T23:38:17.815Z,8.70
2022-12-03T23:40:48.236Z,8.85
2022-12-03T23:43:16.109Z,9.35
2022-12-03T23:45:43.659Z,9.88
2022-12-03T23:48:15.521Z,10.80
2022-12-03T23:50:56.118Z,9.48
2022-12-03T23:53:23.759Z,8.38
2022-12-03T23:55:51.242Z,9.23
2022-12-03T23:58:18.727Z,9.80
